Forside
METAR-TAF:

METAR-TAF

Lufthavne :

Rusk_County_Airport

Ladysmith, Wisconsin, USA

Breddekreds: 45-29-48N, længdekreds: 091-00-01W, højde: 377 m

Aktuelle vejr

Denne rapport blev lavet for 28 minutter siden, kl. 14:15 UTC
Vind 3 kt fra vest
Temperatur 10°C
Fugtighed 57%
Tryk 1008 hPa
Sigt: 16.1 km
skyfri

METAR: KRCX 081415Z AUTO 28003KT 10SM CLR 10/02 A2977 RMK AO2 T00950024

Tid: 09:43 (14:43 UTC)


TAF: fraværende

Vejrobservationer og prognoser fra mere end 4000 lufthavne (METAR og TAF).

De gule og røde prikker repræsenterer de meteorologiske stationer.

Flyt musen over at se navnet på stationen.

Så klik over at se vejr observationer og prognoser.

At skifte det kort: Klik på de grønne knapper med et sort kors for at zoome ind; på den grønne knap med en bindestreg for at zoome ud; eller på de grønne pile for tilstødende kort.


METAR-TAF: